sensor_id;sensor_type;location;lat;lon;timestamp;P1;durP1;ratioP1;P2;durP2;ratioP2
18748;SDS011;9503;53.560;10.246;2023-05-29T00:00:49;8.23;;;3.30;;
18748;SDS011;9503;53.560;10.246;2023-05-29T00:03:18;7.60;;;2.67;;
18748;SDS011;9503;53.560;10.246;2023-05-29T00:05:44;11.53;;;2.83;;
18748;SDS011;9503;53.560;10.246;2023-05-29T00:08:11;6.50;;;2.77;;
18748;SDS011;9503;53.560;10.246;2023-05-29T00:10:38;6.87;;;2.90;;
18748;SDS011;9503;53.560;10.246;2023-05-29T00:13:05;7.60;;;2.63;;
18748;SDS011;9503;53.560;10.246;2023-05-29T00:15:32;12.93;;;3.27;;
18748;SDS011;9503;53.560;10.246;2023-05-29T00:17:59;9.13;;;3.00;;
18748;SDS011;9503;53.560;10.246;2023-05-29T00:20:27;11.93;;;2.50;;
18748;SDS011;9503;53.560;10.246;2023-05-29T00:22:54;18.00;;;3.03;;
18748;SDS011;9503;53.560;10.246;2023-05-29T00:25:20;10.87;;;3.27;;
18748;SDS011;9503;53.560;10.246;2023-05-29T00:27:47;12.10;;;3.10;;
18748;SDS011;9503;53.560;10.246;2023-05-29T00:30:14;10.50;;;3.03;;
18748;SDS011;9503;53.560;10.246;2023-05-29T00:32:40;13.70;;;2.73;;
18748;SDS011;9503;53.560;10.246;2023-05-29T00:35:07;11.87;;;2.90;;
18748;SDS011;9503;53.560;10.246;2023-05-29T00:37:36;9.60;;;2.80;;
18748;SDS011;9503;53.560;10.246;2023-05-29T00:40:03;7.60;;;2.63;;
18748;SDS011;9503;53.560;10.246;2023-05-29T00:42:30;11.57;;;2.80;;
18748;SDS011;9503;53.560;10.246;2023-05-29T00:44:57;12.47;;;3.03;;
18748;SDS011;9503;53.560;10.246;2023-05-29T00:47:24;7.47;;;2.47;;
18748;SDS011;9503;53.560;10.246;2023-05-29T00:49:51;8.57;;;3.37;;
18748;SDS011;9503;53.560;10.246;2023-05-29T00:52:18;7.63;;;2.70;;
18748;SDS011;9503;53.560;10.246;2023-05-29T00:54:47;14.90;;;2.97;;
18748;SDS011;9503;53.560;10.246;2023-05-29T00:57:14;16.03;;;3.07;;
18748;SDS011;9503;53.560;10.246;2023-05-29T00:59:43;14.73;;;2.70;;
18748;SDS011;9503;53.560;10.246;2023-05-29T01:02:11;11.53;;;2.70;;
18748;SDS011;9503;53.560;10.246;2023-05-29T01:04:41;10.77;;;3.43;;
18748;SDS011;9503;53.560;10.246;2023-05-29T01:07:08;10.37;;;3.23;;
18748;SDS011;9503;53.560;10.246;2023-05-29T01:09:35;11.80;;;3.17;;
18748;SDS011;9503;53.560;10.246;2023-05-29T01:12:07;6.73;;;2.47;;
18748;SDS011;9503;53.560;10.246;2023-05-29T01:14:52;10.17;;;2.83;;
18748;SDS011;9503;53.560;10.246;2023-05-29T01:17:31;10.10;;;2.50;;
18748;SDS011;9503;53.560;10.246;2023-05-29T01:20:09;9.33;;;2.80;;
18748;SDS011;9503;53.560;10.246;2023-05-29T01:23:02;15.77;;;2.90;;
18748;SDS011;9503;53.560;10.246;2023-05-29T01:25:41;17.57;;;3.00;;
18748;SDS011;9503;53.560;10.246;2023-05-29T01:28:31;13.60;;;2.80;;
18748;SDS011;9503;53.560;10.246;2023-05-29T01:30:59;16.10;;;3.30;;
18748;SDS011;9503;53.560;10.246;2023-05-29T01:33:27;12.27;;;3.00;;
18748;SDS011;9503;53.560;10.246;2023-05-29T01:35:53;16.90;;;3.30;;
18748;SDS011;9503;53.560;10.246;2023-05-29T01:38:20;20.13;;;3.77;;
18748;SDS011;9503;53.560;10.246;2023-05-29T01:40:46;13.63;;;3.13;;
18748;SDS011;9503;53.560;10.246;2023-05-29T01:43:14;19.57;;;3.27;;
18748;SDS011;9503;53.560;10.246;2023-05-29T01:45:42;14.43;;;4.37;;
18748;SDS011;9503;53.560;10.246;2023-05-29T01:48:09;19.53;;;3.60;;
18748;SDS011;9503;53.560;10.246;2023-05-29T01:50:36;16.10;;;3.47;;
18748;SDS011;9503;53.560;10.246;2023-05-29T01:53:03;14.07;;;2.90;;
18748;SDS011;9503;53.560;10.246;2023-05-29T01:55:30;10.43;;;2.90;;
18748;SDS011;9503;53.560;10.246;2023-05-29T01:57:57;11.33;;;3.03;;
18748;SDS011;9503;53.560;10.246;2023-05-29T02:00:24;15.63;;;2.90;;
18748;SDS011;9503;53.560;10.246;2023-05-29T02:02:52;14.37;;;3.50;;
18748;SDS011;9503;53.560;10.246;2023-05-29T02:05:19;13.53;;;2.90;;
18748;SDS011;9503;53.560;10.246;2023-05-29T02:07:46;11.03;;;3.73;;
18748;SDS011;9503;53.560;10.246;2023-05-29T02:10:13;12.50;;;3.00;;
18748;SDS011;9503;53.560;10.246;2023-05-29T02:12:39;18.73;;;3.90;;
18748;SDS011;9503;53.560;10.246;2023-05-29T02:15:07;10.43;;;3.23;;
18748;SDS011;9503;53.560;10.246;2023-05-29T02:17:34;13.37;;;3.47;;
18748;SDS011;9503;53.560;10.246;2023-05-29T02:20:03;13.53;;;2.70;;
18748;SDS011;9503;53.560;10.246;2023-05-29T02:22:31;15.13;;;3.83;;
18748;SDS011;9503;53.560;10.246;2023-05-29T02:24:58;13.70;;;3.67;;
18748;SDS011;9503;53.560;10.246;2023-05-29T02:27:24;18.23;;;4.03;;
18748;SDS011;9503;53.560;10.246;2023-05-29T02:29:51;12.23;;;3.40;;
18748;SDS011;9503;53.560;10.246;2023-05-29T02:32:18;13.90;;;3.67;;
18748;SDS011;9503;53.560;10.246;2023-05-29T02:34:44;9.57;;;3.27;;
18748;SDS011;9503;53.560;10.246;2023-05-29T02:37:12;11.67;;;3.90;;
18748;SDS011;9503;53.560;10.246;2023-05-29T02:39:39;12.20;;;2.93;;
18748;SDS011;9503;53.560;10.246;2023-05-29T02:42:06;15.60;;;3.57;;
18748;SDS011;9503;53.560;10.246;2023-05-29T02:44:33;9.13;;;2.90;;
18748;SDS011;9503;53.560;10.246;2023-05-29T02:46:59;17.77;;;3.43;;
18748;SDS011;9503;53.560;10.246;2023-05-29T02:49:26;10.90;;;2.97;;
18748;SDS011;9503;53.560;10.246;2023-05-29T02:51:52;12.27;;;2.90;;
18748;SDS011;9503;53.560;10.246;2023-05-29T02:54:22;13.77;;;3.70;;
18748;SDS011;9503;53.560;10.246;2023-05-29T02:56:50;13.03;;;3.00;;
18748;SDS011;9503;53.560;10.246;2023-05-29T02:59:17;16.23;;;3.50;;
18748;SDS011;9503;53.560;10.246;2023-05-29T03:01:43;14.60;;;3.30;;
18748;SDS011;9503;53.560;10.246;2023-05-29T03:04:10;21.43;;;3.20;;
18748;SDS011;9503;53.560;10.246;2023-05-29T03:06:37;11.87;;;3.47;;
18748;SDS011;9503;53.560;10.246;2023-05-29T03:09:04;13.97;;;3.33;;
18748;SDS011;9503;53.560;10.246;2023-05-29T03:11:32;14.03;;;3.53;;
18748;SDS011;9503;53.560;10.246;2023-05-29T03:14:01;16.20;;;3.33;;
18748;SDS011;9503;53.560;10.246;2023-05-29T03:16:27;14.87;;;2.87;;
18748;SDS011;9503;53.560;10.246;2023-05-29T03:18:54;18.37;;;3.60;;
18748;SDS011;9503;53.560;10.246;2023-05-29T03:21:21;15.40;;;4.73;;
18748;SDS011;9503;53.560;10.246;2023-05-29T03:23:48;18.83;;;3.03;;
18748;SDS011;9503;53.560;10.246;2023-05-29T03:26:15;11.67;;;3.57;;
18748;SDS011;9503;53.560;10.246;2023-05-29T03:28:43;14.80;;;3.60;;
18748;SDS011;9503;53.560;10.246;2023-05-29T03:31:10;15.23;;;3.43;;
18748;SDS011;9503;53.560;10.246;2023-05-29T03:33:36;12.93;;;3.97;;
18748;SDS011;9503;53.560;10.246;2023-05-29T03:36:03;16.97;;;3.63;;
18748;SDS011;9503;53.560;10.246;2023-05-29T03:38:30;10.07;;;3.17;;
18748;SDS011;9503;53.560;10.246;2023-05-29T03:40:57;14.03;;;3.30;;
18748;SDS011;9503;53.560;10.246;2023-05-29T03:43:23;16.10;;;3.63;;
18748;SDS011;9503;53.560;10.246;2023-05-29T03:45:51;13.87;;;3.10;;
18748;SDS011;9503;53.560;10.246;2023-05-29T03:48:18;14.03;;;3.93;;
18748;SDS011;9503;53.560;10.246;2023-05-29T03:50:45;13.37;;;3.13;;
18748;SDS011;9503;53.560;10.246;2023-05-29T03:53:12;22.40;;;4.03;;
18748;SDS011;9503;53.560;10.246;2023-05-29T03:55:40;13.10;;;3.10;;
18748;SDS011;9503;53.560;10.246;2023-05-29T03:58:06;19.00;;;3.87;;
18748;SDS011;9503;53.560;10.246;2023-05-29T04:00:33;14.03;;;3.17;;
18748;SDS011;9503;53.560;10.246;2023-05-29T04:03:01;12.33;;;3.40;;
18748;SDS011;9503;53.560;10.246;2023-05-29T04:05:28;14.70;;;3.23;;
18748;SDS011;9503;53.560;10.246;2023-05-29T04:07:55;15.73;;;3.30;;
18748;SDS011;9503;53.560;10.246;2023-05-29T04:10:22;12.77;;;3.83;;
18748;SDS011;9503;53.560;10.246;2023-05-29T04:12:49;14.43;;;3.43;;
18748;SDS011;9503;53.560;10.246;2023-05-29T04:15:16;16.10;;;3.50;;
18748;SDS011;9503;53.560;10.246;2023-05-29T04:17:43;20.93;;;4.33;;
18748;SDS011;9503;53.560;10.246;2023-05-29T04:20:12;15.70;;;3.40;;
18748;SDS011;9503;53.560;10.246;2023-05-29T04:22:38;18.40;;;3.43;;
18748;SDS011;9503;53.560;10.246;2023-05-29T04:25:05;15.47;;;3.97;;
18748;SDS011;9503;53.560;10.246;2023-05-29T04:27:32;16.00;;;4.07;;
18748;SDS011;9503;53.560;10.246;2023-05-29T04:30:02;23.43;;;4.00;;
18748;SDS011;9503;53.560;10.246;2023-05-29T04:32:29;16.50;;;3.67;;
18748;SDS011;9503;53.560;10.246;2023-05-29T04:34:56;20.40;;;3.23;;
18748;SDS011;9503;53.560;10.246;2023-05-29T04:37:28;11.10;;;3.33;;
18748;SDS011;9503;53.560;10.246;2023-05-29T04:39:55;18.07;;;3.70;;
18748;SDS011;9503;53.560;10.246;2023-05-29T04:42:22;19.63;;;3.30;;
18748;SDS011;9503;53.560;10.246;2023-05-29T04:44:50;15.07;;;3.53;;
18748;SDS011;9503;53.560;10.246;2023-05-29T04:47:17;20.00;;;3.50;;
18748;SDS011;9503;53.560;10.246;2023-05-29T04:49:44;17.97;;;3.70;;
18748;SDS011;9503;53.560;10.246;2023-05-29T04:52:15;15.37;;;3.13;;
18748;SDS011;9503;53.560;10.246;2023-05-29T04:54:43;13.57;;;3.60;;
18748;SDS011;9503;53.560;10.246;2023-05-29T04:57:10;15.63;;;3.93;;
18748;SDS011;9503;53.560;10.246;2023-05-29T04:59:36;20.70;;;3.83;;
18748;SDS011;9503;53.560;10.246;2023-05-29T05:02:03;14.33;;;3.30;;
18748;SDS011;9503;53.560;10.246;2023-05-29T05:04:31;12.30;;;3.30;;
18748;SDS011;9503;53.560;10.246;2023-05-29T05:06:57;18.37;;;3.60;;
18748;SDS011;9503;53.560;10.246;2023-05-29T05:09:24;13.03;;;3.63;;
18748;SDS011;9503;53.560;10.246;2023-05-29T05:11:52;19.50;;;3.97;;
18748;SDS011;9503;53.560;10.246;2023-05-29T05:14:19;20.37;;;3.03;;
18748;SDS011;9503;53.560;10.246;2023-05-29T05:16:46;13.03;;;3.17;;
18748;SDS011;9503;53.560;10.246;2023-05-29T05:19:13;16.90;;;3.90;;
18748;SDS011;9503;53.560;10.246;2023-05-29T05:21:39;19.67;;;3.70;;
18748;SDS011;9503;53.560;10.246;2023-05-29T05:24:06;11.83;;;3.07;;
18748;SDS011;9503;53.560;10.246;2023-05-29T05:26:33;15.07;;;3.77;;
18748;SDS011;9503;53.560;10.246;2023-05-29T05:29:01;22.33;;;4.20;;
18748;SDS011;9503;53.560;10.246;2023-05-29T05:31:27;18.50;;;3.73;;
18748;SDS011;9503;53.560;10.246;2023-05-29T05:33:54;15.03;;;3.97;;
18748;SDS011;9503;53.560;10.246;2023-05-29T05:36:21;10.63;;;3.60;;
18748;SDS011;9503;53.560;10.246;2023-05-29T05:38:47;11.13;;;3.33;;
18748;SDS011;9503;53.560;10.246;2023-05-29T05:41:14;15.83;;;3.67;;
18748;SDS011;9503;53.560;10.246;2023-05-29T05:43:41;13.27;;;3.77;;
18748;SDS011;9503;53.560;10.246;2023-05-29T05:46:09;12.77;;;3.77;;
18748;SDS011;9503;53.560;10.246;2023-05-29T05:48:35;15.93;;;4.23;;
18748;SDS011;9503;53.560;10.246;2023-05-29T05:51:02;19.57;;;4.33;;
18748;SDS011;9503;53.560;10.246;2023-05-29T05:53:29;21.67;;;4.13;;
18748;SDS011;9503;53.560;10.246;2023-05-29T05:55:55;17.87;;;4.03;;
18748;SDS011;9503;53.560;10.246;2023-05-29T05:58:22;17.77;;;3.87;;
18748;SDS011;9503;53.560;10.246;2023-05-29T06:00:48;17.73;;;3.50;;
18748;SDS011;9503;53.560;10.246;2023-05-29T06:03:18;14.73;;;3.37;;
18748;SDS011;9503;53.560;10.246;2023-05-29T06:05:45;18.47;;;3.87;;
18748;SDS011;9503;53.560;10.246;2023-05-29T06:08:12;13.10;;;3.63;;
18748;SDS011;9503;53.560;10.246;2023-05-29T06:10:40;18.40;;;3.63;;
18748;SDS011;9503;53.560;10.246;2023-05-29T06:13:07;13.97;;;3.47;;
18748;SDS011;9503;53.560;10.246;2023-05-29T06:15:34;19.00;;;3.83;;
18748;SDS011;9503;53.560;10.246;2023-05-29T06:18:01;10.87;;;3.43;;
18748;SDS011;9503;53.560;10.246;2023-05-29T06:20:29;17.40;;;3.83;;
18748;SDS011;9503;53.560;10.246;2023-05-29T06:22:55;17.00;;;4.30;;
18748;SDS011;9503;53.560;10.246;2023-05-29T06:25:22;20.13;;;4.10;;
18748;SDS011;9503;53.560;10.246;2023-05-29T06:27:55;17.93;;;3.80;;
18748;SDS011;9503;53.560;10.246;2023-05-29T06:30:22;18.70;;;3.53;;
18748;SDS011;9503;53.560;10.246;2023-05-29T06:32:48;15.47;;;3.50;;
18748;SDS011;9503;53.560;10.246;2023-05-29T06:35:15;15.33;;;3.53;;
18748;SDS011;9503;53.560;10.246;2023-05-29T06:37:43;20.20;;;4.83;;
18748;SDS011;9503;53.560;10.246;2023-05-29T06:40:11;17.37;;;3.80;;
18748;SDS011;9503;53.560;10.246;2023-05-29T06:42:39;21.57;;;3.90;;
18748;SDS011;9503;53.560;10.246;2023-05-29T06:45:06;17.83;;;3.47;;
18748;SDS011;9503;53.560;10.246;2023-05-29T06:47:33;17.70;;;3.20;;
18748;SDS011;9503;53.560;10.246;2023-05-29T06:50:00;20.80;;;4.50;;
18748;SDS011;9503;53.560;10.246;2023-05-29T06:52:26;16.43;;;4.03;;
18748;SDS011;9503;53.560;10.246;2023-05-29T06:54:57;11.47;;;3.37;;
18748;SDS011;9503;53.560;10.246;2023-05-29T06:57:24;16.73;;;4.53;;
18748;SDS011;9503;53.560;10.246;2023-05-29T06:59:51;11.03;;;3.10;;
18748;SDS011;9503;53.560;10.246;2023-05-29T07:02:17;14.03;;;3.70;;
18748;SDS011;9503;53.560;10.246;2023-05-29T07:04:44;10.70;;;3.97;;
18748;SDS011;9503;53.560;10.246;2023-05-29T07:07:11;13.70;;;3.80;;
18748;SDS011;9503;53.560;10.246;2023-05-29T07:09:37;15.33;;;3.70;;
18748;SDS011;9503;53.560;10.246;2023-05-29T07:12:06;17.97;;;3.87;;
18748;SDS011;9503;53.560;10.246;2023-05-29T07:14:33;12.87;;;3.20;;
18748;SDS011;9503;53.560;10.246;2023-05-29T07:16:59;10.10;;;3.17;;
18748;SDS011;9503;53.560;10.246;2023-05-29T07:19:26;17.03;;;3.80;;
18748;SDS011;9503;53.560;10.246;2023-05-29T07:21:54;16.13;;;3.93;;
18748;SDS011;9503;53.560;10.246;2023-05-29T07:24:21;16.33;;;3.70;;
18748;SDS011;9503;53.560;10.246;2023-05-29T07:26:47;14.60;;;3.53;;
18748;SDS011;9503;53.560;10.246;2023-05-29T07:29:15;24.93;;;4.40;;
18748;SDS011;9503;53.560;10.246;2023-05-29T07:31:43;12.40;;;3.73;;
18748;SDS011;9503;53.560;10.246;2023-05-29T07:34:09;16.57;;;3.27;;
18748;SDS011;9503;53.560;10.246;2023-05-29T07:36:36;14.57;;;3.33;;
18748;SDS011;9503;53.560;10.246;2023-05-29T07:39:21;16.33;;;3.63;;
18748;SDS011;9503;53.560;10.246;2023-05-29T07:41:48;15.47;;;3.87;;
18748;SDS011;9503;53.560;10.246;2023-05-29T07:44:16;16.57;;;3.33;;
18748;SDS011;9503;53.560;10.246;2023-05-29T07:46:43;12.77;;;3.20;;
18748;SDS011;9503;53.560;10.246;2023-05-29T07:49:09;18.80;;;4.37;;
18748;SDS011;9503;53.560;10.246;2023-05-29T07:51:36;17.83;;;4.57;;
18748;SDS011;9503;53.560;10.246;2023-05-29T07:54:03;13.83;;;3.43;;
18748;SDS011;9503;53.560;10.246;2023-05-29T07:56:30;12.97;;;3.37;;
18748;SDS011;9503;53.560;10.246;2023-05-29T07:58:58;14.43;;;4.27;;
18748;SDS011;9503;53.560;10.246;2023-05-29T08:01:27;12.33;;;3.70;;
18748;SDS011;9503;53.560;10.246;2023-05-29T08:03:55;17.20;;;4.33;;
18748;SDS011;9503;53.560;10.246;2023-05-29T08:06:21;11.97;;;3.70;;
18748;SDS011;9503;53.560;10.246;2023-05-29T08:08:48;13.47;;;3.10;;
18748;SDS011;9503;53.560;10.246;2023-05-29T08:11:15;19.17;;;4.10;;
18748;SDS011;9503;53.560;10.246;2023-05-29T08:13:42;19.37;;;3.80;;
18748;SDS011;9503;53.560;10.246;2023-05-29T08:16:08;11.53;;;3.43;;
18748;SDS011;9503;53.560;10.246;2023-05-29T08:18:36;16.50;;;3.43;;
18748;SDS011;9503;53.560;10.246;2023-05-29T08:21:03;18.75;;;3.60;;
18748;SDS011;9503;53.560;10.246;2023-05-29T08:23:30;12.77;;;3.40;;
18748;SDS011;9503;53.560;10.246;2023-05-29T08:25:57;15.33;;;3.67;;
18748;SDS011;9503;53.560;10.246;2023-05-29T08:28:23;11.87;;;3.50;;
18748;SDS011;9503;53.560;10.246;2023-05-29T08:30:51;12.13;;;3.00;;
18748;SDS011;9503;53.560;10.246;2023-05-29T08:33:18;11.87;;;3.37;;
18748;SDS011;9503;53.560;10.246;2023-05-29T08:35:46;14.27;;;3.60;;
18748;SDS011;9503;53.560;10.246;2023-05-29T08:38:13;17.55;;;3.55;;
18748;SDS011;9503;53.560;10.246;2023-05-29T08:40:39;12.07;;;3.63;;
18748;SDS011;9503;53.560;10.246;2023-05-29T08:43:07;14.65;;;3.17;;
18748;SDS011;9503;53.560;10.246;2023-05-29T08:45:39;11.70;;;3.33;;
18748;SDS011;9503;53.560;10.246;2023-05-29T08:48:11;14.93;;;3.87;;
18748;SDS011;9503;53.560;10.246;2023-05-29T08:50:39;14.57;;;4.25;;
18748;SDS011;9503;53.560;10.246;2023-05-29T08:53:12;13.23;;;3.67;;
18748;SDS011;9503;53.560;10.246;2023-05-29T08:55:39;9.45;;;3.28;;
18748;SDS011;9503;53.560;10.246;2023-05-29T08:58:06;15.48;;;3.03;;
18748;SDS011;9503;53.560;10.246;2023-05-29T09:00:33;15.73;;;3.80;;
18748;SDS011;9503;53.560;10.246;2023-05-29T09:03:00;15.98;;;3.30;;
18748;SDS011;9503;53.560;10.246;2023-05-29T09:05:28;14.07;;;3.85;;
18748;SDS011;9503;53.560;10.246;2023-05-29T09:07:54;15.48;;;3.50;;
18748;SDS011;9503;53.560;10.246;2023-05-29T09:10:23;12.25;;;3.50;;
18748;SDS011;9503;53.560;10.246;2023-05-29T09:12:50;14.52;;;3.05;;
18748;SDS011;9503;53.560;10.246;2023-05-29T09:15:18;9.85;;;2.92;;
18748;SDS011;9503;53.560;10.246;2023-05-29T09:17:49;15.40;;;3.58;;
18748;SDS011;9503;53.560;10.246;2023-05-29T09:20:17;10.23;;;3.60;;
18748;SDS011;9503;53.560;10.246;2023-05-29T09:22:52;9.55;;;3.08;;
18748;SDS011;9503;53.560;10.246;2023-05-29T09:25:20;15.55;;;3.60;;
18748;SDS011;9503;53.560;10.246;2023-05-29T09:27:52;11.40;;;3.30;;
18748;SDS011;9503;53.560;10.246;2023-05-29T09:33:03;13.82;;;3.67;;
18748;SDS011;9503;53.560;10.246;2023-05-29T09:35:32;11.02;;;3.30;;
18748;SDS011;9503;53.560;10.246;2023-05-29T09:38:02;15.02;;;3.38;;
18748;SDS011;9503;53.560;10.246;2023-05-29T09:40:31;15.27;;;3.60;;
18748;SDS011;9503;53.560;10.246;2023-05-29T09:43:02;11.25;;;2.95;;
18748;SDS011;9503;53.560;10.246;2023-05-29T09:45:32;14.18;;;3.42;;
18748;SDS011;9503;53.560;10.246;2023-05-29T09:48:00;14.32;;;3.05;;
18748;SDS011;9503;53.560;10.246;2023-05-29T09:50:28;10.68;;;3.10;;
18748;SDS011;9503;53.560;10.246;2023-05-29T09:52:56;12.32;;;3.10;;
18748;SDS011;9503;53.560;10.246;2023-05-29T09:55:23;10.55;;;2.85;;
18748;SDS011;9503;53.560;10.246;2023-05-29T09:57:54;9.13;;;2.50;;
18748;SDS011;9503;53.560;10.246;2023-05-29T10:00:21;9.38;;;2.80;;
18748;SDS011;9503;53.560;10.246;2023-05-29T10:02:48;9.82;;;3.40;;
18748;SDS011;9503;53.560;10.246;2023-05-29T10:05:15;9.70;;;2.47;;
18748;SDS011;9503;53.560;10.246;2023-05-29T10:07:43;8.02;;;2.45;;
18748;SDS011;9503;53.560;10.246;2023-05-29T10:10:13;9.43;;;2.78;;
18748;SDS011;9503;53.560;10.246;2023-05-29T10:12:42;11.18;;;3.00;;
18748;SDS011;9503;53.560;10.246;2023-05-29T10:15:14;9.18;;;3.20;;
18748;SDS011;9503;53.560;10.246;2023-05-29T10:17:44;9.52;;;2.60;;
18748;SDS011;9503;53.560;10.246;2023-05-29T10:20:16;10.57;;;2.80;;
18748;SDS011;9503;53.560;10.246;2023-05-29T10:22:45;14.80;;;3.08;;
18748;SDS011;9503;53.560;10.246;2023-05-29T10:25:13;7.40;;;2.45;;
18748;SDS011;9503;53.560;10.246;2023-05-29T10:27:42;11.98;;;3.15;;
18748;SDS011;9503;53.560;10.246;2023-05-29T10:30:11;9.43;;;3.33;;
18748;SDS011;9503;53.560;10.246;2023-05-29T10:32:52;13.77;;;3.45;;
18748;SDS011;9503;53.560;10.246;2023-05-29T10:35:31;11.25;;;2.95;;
18748;SDS011;9503;53.560;10.246;2023-05-29T10:38:10;10.82;;;3.00;;
18748;SDS011;9503;53.560;10.246;2023-05-29T10:40:39;11.52;;;2.83;;
18748;SDS011;9503;53.560;10.246;2023-05-29T10:43:06;6.20;;;2.45;;
18748;SDS011;9503;53.560;10.246;2023-05-29T10:45:50;8.18;;;2.72;;
18748;SDS011;9503;53.560;10.246;2023-05-29T10:51:06;7.45;;;2.97;;
18748;SDS011;9503;53.560;10.246;2023-05-29T10:53:33;6.82;;;2.35;;
18748;SDS011;9503;53.560;10.246;2023-05-29T10:56:05;6.82;;;2.83;;
18748;SDS011;9503;53.560;10.246;2023-05-29T10:58:36;9.45;;;2.80;;
18748;SDS011;9503;53.560;10.246;2023-05-29T11:01:04;8.80;;;3.22;;
18748;SDS011;9503;53.560;10.246;2023-05-29T11:03:31;10.43;;;3.45;;
18748;SDS011;9503;53.560;10.246;2023-05-29T11:05:59;10.60;;;3.78;;
18748;SDS011;9503;53.560;10.246;2023-05-29T11:08:32;7.28;;;2.88;;
18748;SDS011;9503;53.560;10.246;2023-05-29T11:11:00;9.02;;;3.10;;
18748;SDS011;9503;53.560;10.246;2023-05-29T11:13:31;8.55;;;2.65;;
18748;SDS011;9503;53.560;10.246;2023-05-29T11:19:04;7.45;;;2.42;;
18748;SDS011;9503;53.560;10.246;2023-05-29T11:21:33;13.07;;;3.00;;
18748;SDS011;9503;53.560;10.246;2023-05-29T11:24:05;8.70;;;2.83;;
18748;SDS011;9503;53.560;10.246;2023-05-29T11:26:32;7.28;;;2.67;;
18748;SDS011;9503;53.560;10.246;2023-05-29T11:29:00;9.77;;;2.60;;
18748;SDS011;9503;53.560;10.246;2023-05-29T11:31:28;12.52;;;2.97;;
18748;SDS011;9503;53.560;10.246;2023-05-29T11:33:59;7.40;;;3.00;;
18748;SDS011;9503;53.560;10.246;2023-05-29T11:36:29;6.00;;;2.63;;
18748;SDS011;9503;53.560;10.246;2023-05-29T11:38:57;7.13;;;2.60;;
18748;SDS011;9503;53.560;10.246;2023-05-29T11:41:24;8.43;;;2.90;;
18748;SDS011;9503;53.560;10.246;2023-05-29T11:43:58;10.57;;;2.70;;
18748;SDS011;9503;53.560;10.246;2023-05-29T11:46:26;8.13;;;2.70;;
18748;SDS011;9503;53.560;10.246;2023-05-29T11:48:56;9.43;;;3.13;;
18748;SDS011;9503;53.560;10.246;2023-05-29T11:51:23;8.75;;;2.70;;
18748;SDS011;9503;53.560;10.246;2023-05-29T11:53:51;9.52;;;2.72;;
18748;SDS011;9503;53.560;10.246;2023-05-29T11:56:23;8.07;;;2.70;;
18748;SDS011;9503;53.560;10.246;2023-05-29T11:58:50;7.80;;;2.78;;
18748;SDS011;9503;53.560;10.246;2023-05-29T12:01:20;7.82;;;2.97;;
18748;SDS011;9503;53.560;10.246;2023-05-29T12:03:48;10.20;;;3.05;;
18748;SDS011;9503;53.560;10.246;2023-05-29T12:06:15;11.75;;;3.38;;
18748;SDS011;9503;53.560;10.246;2023-05-29T12:08:42;5.97;;;2.85;;
18748;SDS011;9503;53.560;10.246;2023-05-29T12:11:10;6.32;;;2.60;;
18748;SDS011;9503;53.560;10.246;2023-05-29T12:13:37;8.65;;;2.80;;
18748;SDS011;9503;53.560;10.246;2023-05-29T12:16:04;12.25;;;2.97;;
18748;SDS011;9503;53.560;10.246;2023-05-29T12:18:31;8.02;;;2.95;;
18748;SDS011;9503;53.560;10.246;2023-05-29T12:20:59;5.53;;;2.33;;
18748;SDS011;9503;53.560;10.246;2023-05-29T12:23:27;7.70;;;2.47;;
18748;SDS011;9503;53.560;10.246;2023-05-29T12:25:54;7.85;;;2.70;;
18748;SDS011;9503;53.560;10.246;2023-05-29T12:28:22;6.07;;;2.67;;
18748;SDS011;9503;53.560;10.246;2023-05-29T12:30:49;10.30;;;2.67;;
18748;SDS011;9503;53.560;10.246;2023-05-29T12:33:28;7.15;;;2.78;;
18748;SDS011;9503;53.560;10.246;2023-05-29T12:36:03;7.55;;;2.40;;
18748;SDS011;9503;53.560;10.246;2023-05-29T12:38:31;8.70;;;2.88;;
18748;SDS011;9503;53.560;10.246;2023-05-29T12:40:58;10.52;;;3.13;;
18748;SDS011;9503;53.560;10.246;2023-05-29T12:43:26;7.00;;;2.67;;
18748;SDS011;9503;53.560;10.246;2023-05-29T12:45:56;8.63;;;2.42;;
18748;SDS011;9503;53.560;10.246;2023-05-29T12:48:26;10.48;;;3.17;;
18748;SDS011;9503;53.560;10.246;2023-05-29T12:50:53;4.88;;;2.60;;
18748;SDS011;9503;53.560;10.246;2023-05-29T12:53:20;5.93;;;2.55;;
18748;SDS011;9503;53.560;10.246;2023-05-29T12:55:46;9.45;;;3.00;;
18748;SDS011;9503;53.560;10.246;2023-05-29T12:58:14;10.90;;;2.70;;
18748;SDS011;9503;53.560;10.246;2023-05-29T13:00:43;10.38;;;2.58;;
18748;SDS011;9503;53.560;10.246;2023-05-29T13:03:10;8.50;;;2.80;;
18748;SDS011;9503;53.560;10.246;2023-05-29T13:05:37;7.57;;;2.72;;
18748;SDS011;9503;53.560;10.246;2023-05-29T13:08:04;6.45;;;2.67;;
18748;SDS011;9503;53.560;10.246;2023-05-29T13:10:32;6.68;;;2.30;;
18748;SDS011;9503;53.560;10.246;2023-05-29T13:12:59;5.70;;;2.40;;
18748;SDS011;9503;53.560;10.246;2023-05-29T13:15:26;10.55;;;2.90;;
18748;SDS011;9503;53.560;10.246;2023-05-29T13:17:54;7.15;;;2.80;;
18748;SDS011;9503;53.560;10.246;2023-05-29T13:20:21;8.75;;;2.88;;
18748;SDS011;9503;53.560;10.246;2023-05-29T13:22:47;7.13;;;2.75;;
18748;SDS011;9503;53.560;10.246;2023-05-29T13:25:14;7.50;;;2.78;;
18748;SDS011;9503;53.560;10.246;2023-05-29T13:27:43;8.20;;;2.85;;
18748;SDS011;9503;53.560;10.246;2023-05-29T13:30:11;6.70;;;2.83;;
18748;SDS011;9503;53.560;10.246;2023-05-29T13:32:39;9.38;;;2.53;;
18748;SDS011;9503;53.560;10.246;2023-05-29T13:35:07;8.40;;;2.83;;
18748;SDS011;9503;53.560;10.246;2023-05-29T13:37:35;7.43;;;3.05;;
18748;SDS011;9503;53.560;10.246;2023-05-29T13:40:02;6.38;;;2.60;;
18748;SDS011;9503;53.560;10.246;2023-05-29T13:42:29;5.95;;;2.53;;
18748;SDS011;9503;53.560;10.246;2023-05-29T13:44:56;6.40;;;2.58;;
18748;SDS011;9503;53.560;10.246;2023-05-29T13:47:23;11.70;;;2.90;;
18748;SDS011;9503;53.560;10.246;2023-05-29T13:49:53;6.80;;;3.10;;
18748;SDS011;9503;53.560;10.246;2023-05-29T13:52:21;6.00;;;2.53;;
18748;SDS011;9503;53.560;10.246;2023-05-29T13:54:48;8.50;;;2.50;;
18748;SDS011;9503;53.560;10.246;2023-05-29T13:57:14;9.25;;;3.15;;
18748;SDS011;9503;53.560;10.246;2023-05-29T13:59:41;7.32;;;2.47;;
18748;SDS011;9503;53.560;10.246;2023-05-29T14:02:08;5.80;;;2.60;;
18748;SDS011;9503;53.560;10.246;2023-05-29T14:04:34;7.13;;;2.90;;
18748;SDS011;9503;53.560;10.246;2023-05-29T14:07:01;5.95;;;2.60;;
18748;SDS011;9503;53.560;10.246;2023-05-29T14:09:29;6.85;;;2.67;;
18748;SDS011;9503;53.560;10.246;2023-05-29T14:11:57;8.68;;;2.85;;
18748;SDS011;9503;53.560;10.246;2023-05-29T14:14:25;8.30;;;2.80;;
18748;SDS011;9503;53.560;10.246;2023-05-29T14:16:52;7.85;;;2.70;;
18748;SDS011;9503;53.560;10.246;2023-05-29T14:19:20;9.23;;;2.85;;
18748;SDS011;9503;53.560;10.246;2023-05-29T14:21:47;9.27;;;2.90;;
18748;SDS011;9503;53.560;10.246;2023-05-29T14:24:14;7.90;;;2.67;;
18748;SDS011;9503;53.560;10.246;2023-05-29T14:26:44;7.68;;;2.78;;
18748;SDS011;9503;53.560;10.246;2023-05-29T14:29:12;5.82;;;2.72;;
18748;SDS011;9503;53.560;10.246;2023-05-29T14:31:39;6.00;;;2.63;;
18748;SDS011;9503;53.560;10.246;2023-05-29T14:34:06;5.97;;;2.45;;
18748;SDS011;9503;53.560;10.246;2023-05-29T14:36:33;6.15;;;2.47;;
18748;SDS011;9503;53.560;10.246;2023-05-29T14:39:00;6.28;;;2.53;;
18748;SDS011;9503;53.560;10.246;2023-05-29T14:41:27;10.75;;;2.95;;
18748;SDS011;9503;53.560;10.246;2023-05-29T14:43:55;5.88;;;2.47;;
18748;SDS011;9503;53.560;10.246;2023-05-29T14:46:23;5.82;;;2.80;;
18748;SDS011;9503;53.560;10.246;2023-05-29T14:48:50;8.05;;;2.72;;
18748;SDS011;9503;53.560;10.246;2023-05-29T14:51:16;6.60;;;2.70;;